PWSweather.com
Personal Weather Stations
Station Observations
VPOKROGLO
Kal Nad Kanalom, PrimorskaSI

Kal Nad KanalomPrimorskaSI

Lat: 46.072, Lon: 13.734

Elevation: 2526

Station Type: WS-2355

https://okroglovreme.com

Latest ConditionsUpdated 9:45:00 AM GMT+01:01 Thursday, Dec 12, 2019
Currently Today's Max Today's Min Today's Average
Temperature 29.1°F-1.6°C 31.3°F-0.4°C 28.0°F-2.2°C 29.0°F-1.7°C
Dew Point 23.7°F-4.6°C 23.7°F-4.6°C 17.8°F-7.9°C 20.7°F-6.3°C
Winds 9.0 mph SE14.5 kmh SE 10.3 mph -16.6 kmh - - 7.4 mph 11.9 kmh
Wind Gusts 20.4 mph32.8 kmh 21.7 mph34.9 kmh - -
Humidity 80% 80% 60% 71%
Pressure 29.72 in1006.4 mb 29.77 in1008.1 mb 29.66 in1004.4 mb -
Hour Temp Dew Point Humidity Winds Wind Gusts Pressure Precip Precip Rate Daily Precip Total
09:45 AM 29.1°F-1.6°C 23.7°F-4.6°C 80% 9.0 mph SE14.5 kmh SE 20.4 mph32.8 kmh 29.72 in1006.4 mb 0.00 in0.0 mm 0.00 in0.0 mm 0.00 in0.0 mm
09:30 AM 28.8°F-1.8°C 23.4°F-4.8°C 80% 9.5 mph SE15.3 kmh SE 18.3 mph29.5 kmh 29.72 in1006.4 mb 0.00 in0.0 mm 0.00 in0.0 mm 0.00 in0.0 mm
09:15 AM 28.8°F-1.8°C 23.4°F-4.8°C 80% 7.7 mph SE12.4 kmh SE 16.8 mph27.0 kmh 29.71 in1006.1 mb 0.00 in0.0 mm 0.00 in0.0 mm 0.00 in0.0 mm
09:00 AM 28.6°F-1.9°C 23.2°F-4.9°C 80% 8.7 mph SSE14.0 kmh SSE 15.7 mph25.3 kmh 29.71 in1006.1 mb 0.00 in0.0 mm 0.00 in0.0 mm 0.00 in0.0 mm
08:45 AM 28.2°F-2.1°C 22.8°F-5.1°C 80% 9.3 mph SE15.0 kmh SE 20.4 mph32.8 kmh 29.71 in1006.1 mb 0.00 in0.0 mm 0.00 in0.0 mm 0.00 in0.0 mm
08:30 AM 28.0°F-2.2°C 22.7°F-5.2°C 80% 9.3 mph SSE15.0 kmh SSE 19.5 mph31.4 kmh 29.70 in1005.8 mb 0.00 in0.0 mm 0.00 in0.0 mm 0.00 in0.0 mm
08:15 AM 28.0°F-2.2°C 22.4°F-5.3°C 79% 9.5 mph SE15.3 kmh SE 18.8 mph30.3 kmh 29.70 in1005.8 mb 0.00 in0.0 mm 0.00 in0.0 mm 0.00 in0.0 mm
08:00 AM 28.2°F-2.1°C 22.2°F-5.4°C 78% 10.3 mph SSE16.6 kmh SSE 17.4 mph28.0 kmh 29.70 in1005.8 mb 0.00 in0.0 mm 0.00 in0.0 mm 0.00 in0.0 mm
07:45 AM 28.0°F-2.2°C 21.8°F-5.7°C 77% 9.5 mph SE15.3 kmh SE 20.4 mph32.8 kmh 29.70 in1005.8 mb 0.00 in0.0 mm 0.00 in0.0 mm 0.00 in0.0 mm
07:30 AM 28.0°F-2.2°C 21.8°F-5.7°C 77% 8.8 mph SE14.2 kmh SE 17.2 mph27.7 kmh 29.70 in1005.8 mb 0.00 in0.0 mm 0.00 in0.0 mm 0.00 in0.0 mm
07:15 AM 28.0°F-2.2°C 21.4°F-5.9°C 76% 8.9 mph SSE14.3 kmh SSE 21.3 mph34.3 kmh 29.69 in1005.4 mb 0.00 in0.0 mm 0.00 in0.0 mm 0.00 in0.0 mm
07:00 AM 28.0°F-2.2°C 21.4°F-5.9°C 76% 8.4 mph SE13.5 kmh SE 17.0 mph27.4 kmh 29.69 in1005.4 mb 0.00 in0.0 mm 0.00 in0.0 mm 0.00 in0.0 mm
06:45 AM 28.0°F-2.2°C 21.1°F-6.1°C 75% 7.0 mph S11.3 kmh S 21.0 mph33.8 kmh 29.69 in1005.4 mb 0.00 in0.0 mm 0.00 in0.0 mm 0.00 in0.0 mm
06:30 AM 28.0°F-2.2°C 21.1°F-6.1°C 75% 6.9 mph SSE11.1 kmh SSE 21.3 mph34.3 kmh 29.69 in1005.4 mb 0.00 in0.0 mm 0.00 in0.0 mm 0.00 in0.0 mm
06:15 AM 28.2°F-2.1°C 21.3°F-5.9°C 75% 6.6 mph SSW10.6 kmh SSW 20.6 mph33.2 kmh 29.68 in1005.1 mb 0.00 in0.0 mm 0.00 in0.0 mm 0.00 in0.0 mm
06:00 AM 28.2°F-2.1°C 21.3°F-5.9°C 75% 6.9 mph WSW11.1 kmh WSW 17.9 mph28.8 kmh 29.68 in1005.1 mb 0.00 in0.0 mm 0.00 in0.0 mm 0.00 in0.0 mm
05:45 AM 28.2°F-2.1°C 21.3°F-5.9°C 75% 7.3 mph SSE11.7 kmh SSE 16.6 mph26.7 kmh 29.68 in1005.1 mb 0.00 in0.0 mm 0.00 in0.0 mm 0.00 in0.0 mm
05:30 AM 28.2°F-2.1°C 21.0°F-6.1°C 74% 7.1 mph SSE11.4 kmh SSE 14.5 mph23.3 kmh 29.68 in1005.1 mb 0.00 in0.0 mm 0.00 in0.0 mm 0.00 in0.0 mm
05:15 AM 28.2°F-2.1°C 21.0°F-6.1°C 74% 6.9 mph S11.1 kmh S 16.8 mph27.0 kmh 29.68 in1005.1 mb 0.00 in0.0 mm 0.00 in0.0 mm 0.00 in0.0 mm
05:00 AM 28.2°F-2.1°C 20.7°F-6.3°C 73% 7.8 mph SE12.6 kmh SE 15.9 mph25.6 kmh 29.67 in1004.7 mb 0.00 in0.0 mm 0.00 in0.0 mm 0.00 in0.0 mm
04:45 AM 28.2°F-2.1°C 20.7°F-6.3°C 73% 7.9 mph SE12.7 kmh SE 21.7 mph34.9 kmh 29.66 in1004.4 mb 0.00 in0.0 mm 0.00 in0.0 mm 0.00 in0.0 mm
04:30 AM 28.6°F-1.9°C 20.7°F-6.3°C 72% 7.1 mph SE11.4 kmh SE 18.1 mph29.1 kmh 29.67 in1004.7 mb 0.00 in0.0 mm 0.00 in0.0 mm 0.00 in0.0 mm
04:15 AM 28.6°F-1.9°C 20.7°F-6.3°C 72% 6.9 mph NE11.1 kmh NE 15.7 mph25.3 kmh 29.68 in1005.1 mb 0.00 in0.0 mm 0.00 in0.0 mm 0.00 in0.0 mm
04:00 AM 28.8°F-1.8°C 20.5°F-6.4°C 71% 7.5 mph ESE12.1 kmh ESE 20.4 mph32.8 kmh 29.68 in1005.1 mb 0.00 in0.0 mm 0.00 in0.0 mm 0.00 in0.0 mm
03:45 AM 28.8°F-1.8°C 20.5°F-6.4°C 71% 7.5 mph NNE12.1 kmh NNE 17.9 mph28.8 kmh 29.68 in1005.1 mb 0.00 in0.0 mm 0.00 in0.0 mm 0.00 in0.0 mm
03:30 AM 28.8°F-1.8°C 20.5°F-6.4°C 71% 6.7 mph ESE10.8 kmh ESE 18.1 mph29.1 kmh 29.69 in1005.4 mb 0.00 in0.0 mm 0.00 in0.0 mm 0.00 in0.0 mm
03:15 AM 28.8°F-1.8°C 20.2°F-6.6°C 70% 7.0 mph SE11.3 kmh SE 19.7 mph31.7 kmh 29.69 in1005.4 mb 0.00 in0.0 mm 0.00 in0.0 mm 0.00 in0.0 mm
03:00 AM 28.9°F-1.7°C 20.0°F-6.7°C 69% 7.2 mph E11.6 kmh E 18.8 mph30.3 kmh 29.70 in1005.8 mb 0.00 in0.0 mm 0.00 in0.0 mm 0.00 in0.0 mm
02:45 AM 29.1°F-1.6°C 19.5°F-6.9°C 67% 7.7 mph E12.4 kmh E 18.8 mph30.3 kmh 29.71 in1006.1 mb 0.00 in0.0 mm 0.00 in0.0 mm 0.00 in0.0 mm
02:30 AM 29.3°F-1.5°C 19.0°F-7.2°C 65% 6.6 mph E10.6 kmh E 14.8 mph23.8 kmh 29.72 in1006.4 mb 0.00 in0.0 mm 0.00 in0.0 mm 0.00 in0.0 mm
02:15 AM 29.7°F-1.3°C 18.2°F-7.7°C 62% 5.3 mph WSW8.5 kmh WSW 15.7 mph25.3 kmh 29.73 in1006.8 mb 0.00 in0.0 mm 0.00 in0.0 mm 0.00 in0.0 mm
02:00 AM 30.0°F-1.1°C 17.8°F-7.9°C 60% 6.4 mph S10.3 kmh S 21.0 mph33.8 kmh 29.73 in1006.8 mb 0.00 in0.0 mm 0.00 in0.0 mm 0.00 in0.0 mm
01:45 AM 30.4°F-0.9°C 18.1°F-7.7°C 60% 6.8 mph NE10.9 kmh NE 19.0 mph30.6 kmh 29.73 in1006.8 mb 0.00 in0.0 mm 0.00 in0.0 mm 0.00 in0.0 mm
01:30 AM 30.9°F-0.6°C 18.7°F-7.4°C 60% 5.8 mph NNW9.3 kmh NNW 15.2 mph24.5 kmh 29.73 in1006.8 mb 0.00 in0.0 mm 0.00 in0.0 mm 0.00 in0.0 mm
01:15 AM 31.1°F-0.5°C 19.2°F-7.1°C 61% 6.1 mph N9.8 kmh N 15.7 mph25.3 kmh 29.73 in1006.8 mb 0.00 in0.0 mm 0.00 in0.0 mm 0.00 in0.0 mm
01:00 AM 31.3°F-0.4°C 19.4°F-7.0°C 61% 5.0 mph ENE8.0 kmh ENE 17.7 mph28.5 kmh 29.74 in1007.1 mb 0.00 in0.0 mm 0.00 in0.0 mm 0.00 in0.0 mm
12:45 AM 30.9°F-0.6°C 19.4°F-7.0°C 62% 6.1 mph S9.8 kmh S 15.7 mph25.3 kmh 29.75 in1007.5 mb 0.00 in0.0 mm 0.00 in0.0 mm 0.00 in0.0 mm
12:30 AM 30.9°F-0.6°C 19.0°F-7.2°C 61% 4.3 mph SSW6.9 kmh SSW 9.6 mph15.4 kmh 29.76 in1007.8 mb 0.00 in0.0 mm 0.00 in0.0 mm 0.00 in0.0 mm
12:15 AM 31.1°F-0.5°C 19.2°F-7.1°C 61% 6.1 mph SSE9.8 kmh SSE 18.3 mph29.5 kmh 29.77 in1008.1 mb 0.00 in0.0 mm 0.00 in0.0 mm 0.00 in0.0 mm
12:00 AM 31.1°F-0.5°C 19.2°F-7.1°C 61% 7.2 mph S11.6 kmh S 18.8 mph30.3 kmh 29.77 in1008.1 mb 0.00 in0.0 mm 0.00 in0.0 mm 0.00 in0.0 mm